createdAt,value
2022-10-15T00:01:16.567Z,15.00
2022-10-15T00:03:45.063Z,9.67
2022-10-15T00:06:14.741Z,7.60
2022-10-15T00:08:41.812Z,23.13
2022-10-15T00:11:14.675Z,21.00
2022-10-15T00:13:41.767Z,5.13
2022-10-15T00:16:19.797Z,6.13
2022-10-15T00:18:47.293Z,6.57
2022-10-15T00:21:15.959Z,8.13
2022-10-15T00:23:42.833Z,8.43
2022-10-15T00:26:12.516Z,12.20
2022-10-15T00:28:39.632Z,6.13
2022-10-15T00:31:12.152Z,8.60
2022-10-15T00:33:38.986Z,11.50
2022-10-15T00:36:15.242Z,7.00
2022-10-15T00:38:42.200Z,6.90
2022-10-15T00:41:14.198Z,8.27
2022-10-15T00:43:49.871Z,9.53
2022-10-15T00:46:40.391Z,8.83
2022-10-15T00:49:17.977Z,7.00
2022-10-15T00:51:52.684Z,7.60
2022-10-15T00:54:20.670Z,11.73
2022-10-15T00:56:48.974Z,7.70
2022-10-15T00:59:17.104Z,7.57
2022-10-15T01:01:44.008Z,5.43
2022-10-15T01:04:11.313Z,6.67
2022-10-15T01:06:39.234Z,6.07
2022-10-15T01:09:06.309Z,5.40
2022-10-15T01:11:39.158Z,7.90
2022-10-15T01:14:39.943Z,8.63
2022-10-15T01:17:27.590Z,4.93
2022-10-15T01:20:25.080Z,6.73
2022-10-15T01:23:22.405Z,4.50
2022-10-15T01:25:54.745Z,3.97
2022-10-15T01:28:39.290Z,4.57
2022-10-15T01:31:27.472Z,8.47
2022-10-15T01:34:35.952Z,4.93
2022-10-15T01:37:13.585Z,6.33
2022-10-15T01:39:43.963Z,4.73
2022-10-15T01:42:16.467Z,5.40
2022-10-15T01:44:49.459Z,4.10
2022-10-15T01:47:35.719Z,6.23
2022-10-15T01:50:04.263Z,6.30
2022-10-15T01:52:34.531Z,7.23
2022-10-15T01:55:04.406Z,5.80
2022-10-15T01:57:33.290Z,5.30
2022-10-15T02:00:01.981Z,7.57
2022-10-15T02:02:28.578Z,8.67
2022-10-15T02:04:55.118Z,5.53
2022-10-15T02:07:40.053Z,12.00
2022-10-15T02:10:19.232Z,6.67
2022-10-15T02:13:33.714Z,6.67
2022-10-15T02:16:30.703Z,4.90
2022-10-15T02:18:57.237Z,7.03
2022-10-15T02:21:42.428Z,4.07
2022-10-15T02:24:16.089Z,4.20
2022-10-15T02:26:43.693Z,7.17
2022-10-15T02:29:17.868Z,5.93
2022-10-15T02:31:47.107Z,4.90
2022-10-15T02:34:19.591Z,4.70
2022-10-15T02:36:48.865Z,5.10
2022-10-15T02:39:24.057Z,7.80
2022-10-15T02:41:53.182Z,3.10
2022-10-15T02:44:20.458Z,3.97
2022-10-15T02:46:47.058Z,3.57
2022-10-15T02:49:13.633Z,7.93
2022-10-15T02:51:40.353Z,4.90
2022-10-15T02:54:07.794Z,4.57
2022-10-15T02:56:35.111Z,6.27
2022-10-15T02:59:01.776Z,7.77
2022-10-15T03:01:28.449Z,8.80
2022-10-15T03:03:55.094Z,3.53
2022-10-15T03:06:21.663Z,5.20
2022-10-15T03:08:48.257Z,5.13
2022-10-15T03:11:15.291Z,4.40
2022-10-15T03:13:41.962Z,6.80
2022-10-15T03:16:10.900Z,4.13
2022-10-15T03:18:40.491Z,7.00
2022-10-15T03:21:07.679Z,6.83
2022-10-15T03:26:06.122Z,7.20
2022-10-15T03:28:32.750Z,5.53
2022-10-15T03:31:00.032Z,9.50
2022-10-15T03:33:27.005Z,5.63
2022-10-15T03:35:53.815Z,8.00
2022-10-15T03:38:20.548Z,8.73
2022-10-15T03:40:47.422Z,5.33
2022-10-15T03:43:14.138Z,9.00
2022-10-15T03:45:40.704Z,6.83
2022-10-15T03:48:07.331Z,8.90
2022-10-15T03:50:34.349Z,14.17
2022-10-15T03:53:04.238Z,4.77
2022-10-15T03:55:30.866Z,5.90
2022-10-15T03:57:57.468Z,7.97
2022-10-15T04:00:24.048Z,12.87
2022-10-15T04:02:50.615Z,6.77
2022-10-15T04:05:17.238Z,10.20
2022-10-15T04:07:43.808Z,8.03
2022-10-15T04:10:10.915Z,12.03
2022-10-15T04:12:37.529Z,9.37
2022-10-15T04:15:04.773Z,5.93
2022-10-15T04:17:31.392Z,8.07
2022-10-15T04:19:58.150Z,5.30
2022-10-15T04:22:25.023Z,4.80
2022-10-15T04:24:51.887Z,6.30
2022-10-15T04:27:18.480Z,9.47
2022-10-15T04:29:48.460Z,10.57
2022-10-15T04:32:15.474Z,6.87
2022-10-15T04:34:42.055Z,7.90
2022-10-15T04:37:08.622Z,10.70
2022-10-15T04:39:35.310Z,10.30
2022-10-15T04:42:01.907Z,10.27
2022-10-15T04:44:28.573Z,8.67
2022-10-15T04:46:55.245Z,6.77
2022-10-15T04:49:21.851Z,8.77
2022-10-15T04:51:48.913Z,7.80
2022-10-15T04:54:15.620Z,7.53
2022-10-15T04:56:42.350Z,11.43
2022-10-15T04:59:09.628Z,13.13
2022-10-15T05:01:36.187Z,11.77
2022-10-15T05:04:02.899Z,14.87
2022-10-15T05:06:29.550Z,12.30
2022-10-15T05:08:56.235Z,12.77
2022-10-15T05:11:26.158Z,14.90
2022-10-15T05:13:54.495Z,17.60
2022-10-15T05:16:24.364Z,19.73
2022-10-15T05:18:54.848Z,19.03
2022-10-15T05:21:21.446Z,18.40
2022-10-15T05:23:50.057Z,16.63
2022-10-15T05:26:19.618Z,13.00
2022-10-15T05:28:46.506Z,14.50
2022-10-15T05:31:19.378Z,15.97
2022-10-15T05:33:47.690Z,15.00
2022-10-15T05:36:18.803Z,15.33
2022-10-15T05:38:51.155Z,17.57
2022-10-15T05:41:18.406Z,16.13
2022-10-15T05:43:52.584Z,18.33
2022-10-15T05:46:19.952Z,24.23
2022-10-15T05:48:57.057Z,20.07
2022-10-15T05:51:25.668Z,24.13
2022-10-15T05:53:57.007Z,19.00
2022-10-15T05:56:24.506Z,19.67
2022-10-15T05:58:51.513Z,22.70
2022-10-15T06:01:18.595Z,29.70
2022-10-15T06:03:45.385Z,27.03
2022-10-15T06:06:20.128Z,28.40
2022-10-15T06:08:47.586Z,27.20
2022-10-15T06:11:14.442Z,28.47
2022-10-15T06:13:42.778Z,33.03
2022-10-15T06:16:10.362Z,34.07
2022-10-15T06:18:38.494Z,30.30
2022-10-15T06:21:06.606Z,38.27
2022-10-15T06:23:33.873Z,37.77
2022-10-15T06:26:05.285Z,38.80
2022-10-15T06:28:32.799Z,36.97
2022-10-15T06:31:00.338Z,45.40
2022-10-15T06:33:28.506Z,39.90
2022-10-15T06:35:55.356Z,36.87
2022-10-15T06:38:22.074Z,41.10
2022-10-15T06:40:48.627Z,45.37
2022-10-15T06:43:15.230Z,39.17
2022-10-15T06:45:42.483Z,39.70
2022-10-15T06:48:09.209Z,48.40
2022-10-15T06:50:37.653Z,44.40
2022-10-15T06:53:05.755Z,47.20
2022-10-15T06:55:32.483Z,43.57
2022-10-15T06:57:59.403Z,44.93
2022-10-15T07:00:26.623Z,48.03
2022-10-15T07:02:53.485Z,50.43
2022-10-15T07:05:20.437Z,48.13
2022-10-15T07:07:54.463Z,57.87
2022-10-15T07:10:22.377Z,56.10
2022-10-15T07:12:49.098Z,51.10
2022-10-15T07:15:15.835Z,55.00
2022-10-15T07:17:50.137Z,46.37
2022-10-15T07:20:21.728Z,55.83
2022-10-15T07:22:51.912Z,50.90
2022-10-15T07:25:18.518Z,99.70
2022-10-15T07:27:45.271Z,76.13
2022-10-15T07:30:12.082Z,46.93
2022-10-15T07:32:38.943Z,47.10
2022-10-15T07:35:05.998Z,55.93
2022-10-15T07:37:32.728Z,53.03
2022-10-15T07:39:59.306Z,60.23
2022-10-15T07:42:26.360Z,56.50
2022-10-15T07:44:53.145Z,55.10
2022-10-15T07:47:19.858Z,47.53
2022-10-15T07:49:46.417Z,51.20
2022-10-15T07:52:13.031Z,47.00
2022-10-15T07:54:39.666Z,48.40
2022-10-15T07:57:09.182Z,46.13
2022-10-15T07:59:35.936Z,45.00
2022-10-15T08:02:02.605Z,44.33
2022-10-15T08:04:29.326Z,42.90
2022-10-15T08:06:55.926Z,45.13
2022-10-15T08:09:22.595Z,46.73
2022-10-15T08:11:49.149Z,45.97
2022-10-15T08:14:15.747Z,46.57
2022-10-15T08:16:42.293Z,46.97
2022-10-15T08:19:08.870Z,40.77
2022-10-15T08:21:35.450Z,45.00
2022-10-15T08:24:02.048Z,37.60
2022-10-15T08:26:28.638Z,44.67
2022-10-15T08:28:55.282Z,39.70
2022-10-15T08:31:21.956Z,41.23
2022-10-15T08:33:48.573Z,39.23
2022-10-15T08:36:15.155Z,37.17
2022-10-15T08:38:41.775Z,37.03
2022-10-15T08:41:26.919Z,32.13
2022-10-15T08:43:53.573Z,31.23
2022-10-15T08:46:37.426Z,29.40
2022-10-15T08:49:06.070Z,31.10
2022-10-15T08:51:43.191Z,27.90
2022-10-15T08:54:15.369Z,27.97
2022-10-15T08:56:47.108Z,25.67
2022-10-15T08:59:32.679Z,27.20
2022-10-15T09:02:10.201Z,23.10
2022-10-15T09:04:48.271Z,22.57
2022-10-15T09:07:42.716Z,24.70
2022-10-15T09:10:27.463Z,23.23
2022-10-15T09:13:02.817Z,24.90
2022-10-15T09:15:36.581Z,23.27
2022-10-15T09:18:04.698Z,17.07
2022-10-15T09:20:34.901Z,21.83
2022-10-15T09:23:01.640Z,20.67
2022-10-15T09:25:36.245Z,19.27
2022-10-15T09:28:10.918Z,18.17
2022-10-15T09:30:51.194Z,19.07
2022-10-15T09:33:35.594Z,17.23
2022-10-15T09:36:27.934Z,20.43
2022-10-15T09:39:13.423Z,15.43
2022-10-15T09:41:53.551Z,16.03
2022-10-15T09:44:24.301Z,17.97
2022-10-15T09:46:51.590Z,15.57
2022-10-15T09:49:23.781Z,15.47
2022-10-15T09:52:15.843Z,14.13
2022-10-15T09:54:55.998Z,12.40
2022-10-15T09:57:25.054Z,14.20
2022-10-15T10:00:01.271Z,12.33
2022-10-15T10:02:29.876Z,11.67
2022-10-15T10:04:56.906Z,12.63
2022-10-15T10:07:38.894Z,10.93
2022-10-15T10:10:26.001Z,11.13
2022-10-15T10:12:54.927Z,14.13
2022-10-15T10:15:37.071Z,14.73
2022-10-15T10:18:06.542Z,10.67
2022-10-15T10:20:34.126Z,11.37
2022-10-15T10:23:02.843Z,10.97
2022-10-15T10:25:37.464Z,12.37
2022-10-15T10:28:14.054Z,14.43
2022-10-15T10:31:03.451Z,13.13
2022-10-15T10:33:37.364Z,12.43
2022-10-15T10:36:06.800Z,15.17
2022-10-15T10:38:38.925Z,14.50
2022-10-15T10:41:09.677Z,13.10
2022-10-15T10:43:39.650Z,12.20
2022-10-15T10:46:18.281Z,11.00
2022-10-15T10:48:52.673Z,10.60
2022-10-15T10:51:25.441Z,9.40
2022-10-15T10:54:00.201Z,9.93
2022-10-15T10:56:43.400Z,13.40
2022-10-15T10:59:15.977Z,7.80
2022-10-15T11:01:42.575Z,6.47
2022-10-15T11:04:17.025Z,5.10
2022-10-15T11:06:59.200Z,6.07
2022-10-15T11:09:31.926Z,5.80
2022-10-15T11:12:26.665Z,5.77
2022-10-15T11:15:05.369Z,6.20
2022-10-15T11:18:04.728Z,6.57
2022-10-15T11:20:56.283Z,5.10
2022-10-15T11:23:44.324Z,4.33
2022-10-15T11:26:41.436Z,3.07
2022-10-15T11:29:56.592Z,4.40
2022-10-15T11:32:47.811Z,2.90
2022-10-15T11:35:52.786Z,2.47
2022-10-15T11:38:45.320Z,4.27
2022-10-15T11:41:52.951Z,2.70
2022-10-15T11:44:42.868Z,2.53
2022-10-15T11:47:21.259Z,2.10
2022-10-15T11:50:01.775Z,4.73
2022-10-15T11:52:46.619Z,1.77
2022-10-15T11:55:39.443Z,1.97
2022-10-15T11:58:18.034Z,1.80
2022-10-15T12:00:54.091Z,1.00
2022-10-15T12:03:26.857Z,2.23
2022-10-15T12:06:16.970Z,1.17
2022-10-15T12:08:45.266Z,1.30
2022-10-15T12:11:27.062Z,2.13
2022-10-15T12:14:22.202Z,1.43
2022-10-15T12:17:35.973Z,1.00
2022-10-15T12:20:12.972Z,3.57
2022-10-15T12:23:01.902Z,1.27
2022-10-15T12:25:34.661Z,1.37
2022-10-15T12:28:01.196Z,1.27
2022-10-15T12:30:34.375Z,0.73
2022-10-15T12:33:02.106Z,0.80
2022-10-15T12:35:38.393Z,4.57
2022-10-15T12:38:27.396Z,0.97
2022-10-15T12:41:09.720Z,1.27
2022-10-15T12:43:41.082Z,1.30
2022-10-15T12:46:10.837Z,1.00
2022-10-15T12:48:43.635Z,0.73
2022-10-15T12:51:16.230Z,2.00
2022-10-15T12:53:44.597Z,1.07
2022-10-15T12:56:11.238Z,1.37
2022-10-15T12:58:51.386Z,1.43
2022-10-15T13:01:21.093Z,5.33
2022-10-15T13:03:51.052Z,1.60
2022-10-15T13:06:20.648Z,0.70
2022-10-15T13:09:21.219Z,1.80
2022-10-15T13:11:49.133Z,0.73
2022-10-15T13:14:30.878Z,0.50
2022-10-15T13:16:58.380Z,0.53
2022-10-15T13:20:11.100Z,1.80
2022-10-15T13:22:37.808Z,2.93
2022-10-15T13:25:15.023Z,0.60
2022-10-15T13:27:41.634Z,0.40
2022-10-15T13:30:16.417Z,0.40
2022-10-15T13:32:49.970Z,0.50
2022-10-15T13:35:29.539Z,0.50
2022-10-15T13:37:57.633Z,0.97
2022-10-15T13:40:27.197Z,0.40
2022-10-15T13:43:08.534Z,1.43
2022-10-15T13:45:35.294Z,1.23
2022-10-15T13:48:01.863Z,1.10
2022-10-15T13:50:34.872Z,1.47
2022-10-15T13:53:26.457Z,4.10
2022-10-15T13:55:56.104Z,1.13
2022-10-15T13:58:29.386Z,0.90
2022-10-15T14:01:13.690Z,3.07
2022-10-15T14:03:47.357Z,0.60
2022-10-15T14:06:19.148Z,0.60
2022-10-15T14:08:51.452Z,0.70
2022-10-15T14:11:18.883Z,2.10
2022-10-15T14:13:46.396Z,0.50
2022-10-15T14:16:31.335Z,1.00
2022-10-15T14:19:06.856Z,0.50
2022-10-15T14:21:35.507Z,1.30
2022-10-15T14:24:06.453Z,0.70
2022-10-15T14:26:34.943Z,1.00
2022-10-15T14:29:02.179Z,0.77
2022-10-15T14:31:40.607Z,1.43
2022-10-15T14:34:35.142Z,1.70
2022-10-15T14:37:03.250Z,1.23
2022-10-15T14:39:35.588Z,0.70
2022-10-15T14:42:25.513Z,1.27
2022-10-15T14:44:52.279Z,0.70
2022-10-15T14:47:25.468Z,0.90
2022-10-15T14:49:56.061Z,1.60
2022-10-15T14:52:23.443Z,1.47
2022-10-15T14:55:07.197Z,1.27
2022-10-15T14:57:39.640Z,2.93
2022-10-15T15:00:20.125Z,1.00
2022-10-15T15:02:47.773Z,1.23
2022-10-15T15:05:14.339Z,0.50
2022-10-15T15:07:41.143Z,1.50
2022-10-15T15:10:08.926Z,0.40
2022-10-15T15:12:37.984Z,1.63
2022-10-15T15:15:12.424Z,1.37
2022-10-15T15:17:39.100Z,0.50
2022-10-15T15:20:06.219Z,0.50
2022-10-15T15:22:35.152Z,0.33
2022-10-15T15:25:10.240Z,0.50
2022-10-15T15:27:39.837Z,0.40
2022-10-15T15:30:13.337Z,1.03
2022-10-15T15:32:39.952Z,0.30
2022-10-15T15:35:18.168Z,0.90
2022-10-15T15:37:45.048Z,0.80
2022-10-15T15:40:12.114Z,0.50
2022-10-15T15:42:38.993Z,1.20
2022-10-15T15:45:05.990Z,0.47
2022-10-15T15:47:32.608Z,3.13
2022-10-15T15:49:59.343Z,1.97
2022-10-15T15:52:26.362Z,2.03
2022-10-15T15:54:53.133Z,0.70
2022-10-15T15:57:19.714Z,3.37
2022-10-15T15:59:46.267Z,2.23
2022-10-15T16:02:13.093Z,2.17
2022-10-15T16:04:39.702Z,3.30
2022-10-15T16:07:08.999Z,0.70
2022-10-15T16:09:38.327Z,0.70
2022-10-15T16:12:05.630Z,2.07
2022-10-15T16:14:32.505Z,1.93
2022-10-15T16:16:59.208Z,1.03
2022-10-15T16:19:25.821Z,0.90
2022-10-15T16:21:52.398Z,1.10
2022-10-15T16:24:19.014Z,2.77
2022-10-15T16:26:45.563Z,2.17
2022-10-15T16:29:12.277Z,4.67
2022-10-15T16:31:38.838Z,2.93
2022-10-15T16:34:05.874Z,1.53
2022-10-15T16:36:32.829Z,0.37
2022-10-15T16:38:59.489Z,1.40
2022-10-15T16:41:26.127Z,1.20
2022-10-15T16:43:53.008Z,0.50
2022-10-15T16:46:20.144Z,0.60
2022-10-15T16:48:55.323Z,0.57
2022-10-15T16:51:23.529Z,2.20
2022-10-15T16:53:51.106Z,0.90
2022-10-15T16:56:20.986Z,1.90
2022-10-15T16:58:48.366Z,0.60
2022-10-15T17:01:18.119Z,1.20
2022-10-15T17:03:46.517Z,0.50
2022-10-15T17:06:19.395Z,0.57
2022-10-15T17:08:48.870Z,1.30
2022-10-15T17:11:18.669Z,0.77
2022-10-15T17:13:45.434Z,0.87
2022-10-15T17:16:24.156Z,0.70
2022-10-15T17:21:23.287Z,0.73
2022-10-15T17:23:58.533Z,0.60
2022-10-15T17:26:28.629Z,1.70
2022-10-15T17:28:55.710Z,1.20
2022-10-15T17:31:24.194Z,2.17
2022-10-15T17:33:57.459Z,4.60
2022-10-15T17:36:25.549Z,4.77
2022-10-15T17:38:52.577Z,4.63
2022-10-15T17:41:21.700Z,2.20
2022-10-15T17:43:49.610Z,1.37
2022-10-15T17:46:19.354Z,1.37
2022-10-15T17:48:46.551Z,1.07
2022-10-15T17:51:15.597Z,1.00
2022-10-15T17:53:43.280Z,2.23
2022-10-15T17:56:12.295Z,1.20
2022-10-15T17:58:39.318Z,1.90
2022-10-15T18:01:06.963Z,1.83
2022-10-15T18:03:33.676Z,1.50
2022-10-15T18:06:10.562Z,1.17
2022-10-15T18:08:37.179Z,1.60
2022-10-15T18:11:04.627Z,1.93
2022-10-15T18:13:31.776Z,1.27
2022-10-15T18:15:58.666Z,2.87
2022-10-15T18:18:26.298Z,3.50
2022-10-15T18:20:53.678Z,2.70
2022-10-15T18:23:20.689Z,1.50
2022-10-15T18:25:47.701Z,1.03
2022-10-15T18:28:14.301Z,1.23
2022-10-15T18:30:42.538Z,1.93
2022-10-15T18:33:12.283Z,1.30
2022-10-15T18:35:39.811Z,1.30
2022-10-15T18:38:07.120Z,1.80
2022-10-15T18:40:38.641Z,1.57
2022-10-15T18:43:07.690Z,2.03
2022-10-15T18:45:36.485Z,4.10
2022-10-15T18:48:03.571Z,1.83
2022-10-15T18:50:31.141Z,2.13
2022-10-15T18:52:57.734Z,2.40
2022-10-15T18:55:24.387Z,2.53
2022-10-15T18:57:50.934Z,3.57
2022-10-15T19:00:17.653Z,2.70
2022-10-15T19:02:44.280Z,3.93
2022-10-15T19:05:11.004Z,2.87
2022-10-15T19:07:37.610Z,2.87
2022-10-15T19:10:04.580Z,2.40
2022-10-15T19:12:31.199Z,4.67
2022-10-15T19:14:57.754Z,3.23
2022-10-15T19:17:24.322Z,2.60
2022-10-15T19:19:50.995Z,3.77
2022-10-15T19:22:18.265Z,2.70
2022-10-15T19:24:44.962Z,2.20
2022-10-15T19:27:11.778Z,3.33
2022-10-15T19:29:39.341Z,2.80
2022-10-15T19:32:06.159Z,2.47
2022-10-15T19:34:35.201Z,2.83
2022-10-15T19:37:01.974Z,5.07
2022-10-15T19:39:29.036Z,4.33
2022-10-15T19:41:55.612Z,4.13
2022-10-15T19:44:25.471Z,3.03
2022-10-15T19:46:52.926Z,2.83
2022-10-15T19:49:19.533Z,3.97
2022-10-15T19:51:49.708Z,2.50
2022-10-15T19:54:17.249Z,2.33
2022-10-15T19:56:43.864Z,2.47
2022-10-15T19:59:11.073Z,3.90
2022-10-15T20:01:37.888Z,2.40
2022-10-15T20:04:06.949Z,4.03
2022-10-15T20:06:35.880Z,2.97
2022-10-15T20:09:03.065Z,1.90
2022-10-15T20:11:30.277Z,2.40
2022-10-15T20:13:58.939Z,1.50
2022-10-15T20:16:27.534Z,2.17
2022-10-15T20:18:56.945Z,3.13
2022-10-15T20:21:23.770Z,1.73
2022-10-15T20:23:50.418Z,1.50
2022-10-15T20:26:17.105Z,7.30
2022-10-15T20:28:45.608Z,2.30
2022-10-15T20:31:16.406Z,1.87
2022-10-15T20:33:44.094Z,1.50
2022-10-15T20:36:14.843Z,1.63
2022-10-15T20:38:42.781Z,2.97
2022-10-15T20:41:12.008Z,1.60
2022-10-15T20:43:39.028Z,1.77
2022-10-15T20:46:12.810Z,6.90
2022-10-15T20:48:41.553Z,1.87
2022-10-15T20:51:10.244Z,3.27
2022-10-15T20:53:37.635Z,1.97
2022-10-15T20:56:04.434Z,2.57
2022-10-15T20:58:31.335Z,2.70
2022-10-15T21:00:58.126Z,6.87
2022-10-15T21:03:25.337Z,3.27
2022-10-15T21:05:52.142Z,3.60
2022-10-15T21:08:18.873Z,6.63
2022-10-15T21:10:45.456Z,6.13
2022-10-15T21:13:12.158Z,4.00
2022-10-15T21:15:38.745Z,4.07
2022-10-15T21:18:05.365Z,2.87
2022-10-15T21:20:31.973Z,3.73
2022-10-15T21:22:58.682Z,3.93
2022-10-15T21:25:25.335Z,6.07
2022-10-15T21:27:52.266Z,5.60
2022-10-15T21:30:18.910Z,3.87
2022-10-15T21:32:45.470Z,5.80
2022-10-15T21:35:12.067Z,3.23
2022-10-15T21:37:39.060Z,3.43
2022-10-15T21:40:07.559Z,6.33
2022-10-15T21:42:34.552Z,4.60
2022-10-15T21:45:01.302Z,7.13
2022-10-15T21:47:28.185Z,1.70
2022-10-15T21:49:54.986Z,9.47
2022-10-15T21:52:21.644Z,3.13
2022-10-15T21:54:48.259Z,7.67
2022-10-15T21:57:14.822Z,4.17
2022-10-15T21:59:41.387Z,4.90
2022-10-15T22:02:08.323Z,3.93
2022-10-15T22:04:35.582Z,5.07
2022-10-15T22:07:03.037Z,4.40
2022-10-15T22:09:30.113Z,5.70
2022-10-15T22:11:56.736Z,6.17
2022-10-15T22:14:23.466Z,3.97
2022-10-15T22:16:50.101Z,4.30
2022-10-15T22:19:18.305Z,3.40
2022-10-15T22:21:45.294Z,3.73
2022-10-15T22:24:17.395Z,5.67
2022-10-15T22:26:47.517Z,5.33
2022-10-15T22:29:26.179Z,4.47
2022-10-15T22:31:54.028Z,3.50
2022-10-15T22:34:22.570Z,3.63
2022-10-15T22:36:49.888Z,3.70
2022-10-15T22:39:17.814Z,5.57
2022-10-15T22:41:46.238Z,3.57
2022-10-15T22:44:18.619Z,3.33
2022-10-15T22:46:46.102Z,3.10
2022-10-15T22:49:14.073Z,3.93
2022-10-15T22:51:41.374Z,6.23
2022-10-15T22:54:08.232Z,3.53
2022-10-15T22:56:35.046Z,4.53
2022-10-15T22:59:01.949Z,2.77
2022-10-15T23:01:31.004Z,8.23
2022-10-15T23:04:04.446Z,4.20
2022-10-15T23:06:32.585Z,4.07
2022-10-15T23:09:00.844Z,4.40
2022-10-15T23:11:28.517Z,4.30
2022-10-15T23:13:57.947Z,3.20
2022-10-15T23:16:27.974Z,9.00
2022-10-15T23:19:03.006Z,4.73
2022-10-15T23:21:43.029Z,5.97
2022-10-15T23:24:10.337Z,3.20
2022-10-15T23:26:38.690Z,3.70
2022-10-15T23:29:07.171Z,3.70
2022-10-15T23:31:35.360Z,4.47
2022-10-15T23:34:03.377Z,4.00
2022-10-15T23:36:30.661Z,3.43
2022-10-15T23:39:00.453Z,2.77
2022-10-15T23:41:29.159Z,6.67
2022-10-15T23:43:56.203Z,3.57
2022-10-15T23:46:23.341Z,3.63
2022-10-15T23:48:50.254Z,6.57
2022-10-15T23:51:28.510Z,6.90
2022-10-15T23:53:56.925Z,3.03
2022-10-15T23:56:24.364Z,5.33
2022-10-15T23:58:53.233Z,3.13
